Decoded Metar for LFOP (ROUEN in FRANCE) (IATA:URO) | Meteo·Mobile Aviation Weather
aviador You're here:

LFOP Decoded Metar

ROUEN in FRANCE
Report Time2019-10-19 22:30:00
UTC Time2019-10-19 22:50:38
Flight Rules vfr VFR
Wind150° at 02 kt
W.Decomp.*RWY 22: 0.7 kt HW 1.9 kt LCW
RWY 23: 0.3 kt HW 2 kt LCW
Visibility9999 m
Phenomena:N/A
Clouds:N/A
CeilingNone
Temp09°C (ISA -5)
Dew Point09°C (100% RH)
AAT8.1°C
QNH1006 hPa
Density Alt315 ft
Elevation515 ft
Report Wrong Elevation
Raw Report
LFOP 192230Z AUTO 15002KT CAVOK 09/09 Q1006=

Extra information for LFOP:More info

Metar Taf Metar & Taf Last 4 Metars F.Rules Stats Wind Profile Meteogram Temp Stats Airport Information Weather charts Add Link Nearby VenuesMetar ALERT Operation Metar Decoded Social comments